sensor_id;sensor_type;location;lat;lon;timestamp;temperature;humidity
19192;DHT22;9728;48.194;16.346;2023-07-30T00:02:44;30.60;52.60
19192;DHT22;9728;48.194;16.346;2023-07-30T00:07:48;30.60;52.70
19192;DHT22;9728;48.194;16.346;2023-07-30T00:12:51;30.60;52.70
19192;DHT22;9728;48.194;16.346;2023-07-30T00:17:56;30.60;52.80
19192;DHT22;9728;48.194;16.346;2023-07-30T00:23:00;30.60;52.90
19192;DHT22;9728;48.194;16.346;2023-07-30T00:28:04;30.60;52.90
19192;DHT22;9728;48.194;16.346;2023-07-30T00:33:08;30.50;53.00
19192;DHT22;9728;48.194;16.346;2023-07-30T00:38:12;30.50;53.10
19192;DHT22;9728;48.194;16.346;2023-07-30T00:43:18;30.50;53.10
19192;DHT22;9728;48.194;16.346;2023-07-30T00:48:22;30.50;53.10
19192;DHT22;9728;48.194;16.346;2023-07-30T00:53:26;30.50;53.20
19192;DHT22;9728;48.194;16.346;2023-07-30T00:58:31;30.50;53.30
19192;DHT22;9728;48.194;16.346;2023-07-30T01:03:37;30.40;53.30
19192;DHT22;9728;48.194;16.346;2023-07-30T01:08:40;30.40;53.50
19192;DHT22;9728;48.194;16.346;2023-07-30T01:13:44;30.40;53.40
19192;DHT22;9728;48.194;16.346;2023-07-30T01:18:51;30.30;53.40
19192;DHT22;9728;48.194;16.346;2023-07-30T01:23:56;30.30;53.50
19192;DHT22;9728;48.194;16.346;2023-07-30T01:29:01;30.30;53.60
19192;DHT22;9728;48.194;16.346;2023-07-30T01:34:07;30.30;53.70
19192;DHT22;9728;48.194;16.346;2023-07-30T01:39:14;30.30;53.60
19192;DHT22;9728;48.194;16.346;2023-07-30T01:44:18;30.20;53.70
19192;DHT22;9728;48.194;16.346;2023-07-30T01:49:22;30.20;53.70
19192;DHT22;9728;48.194;16.346;2023-07-30T01:54:27;30.20;53.80
19192;DHT22;9728;48.194;16.346;2023-07-30T01:59:30;30.20;54.00
19192;DHT22;9728;48.194;16.346;2023-07-30T02:04:34;30.10;53.90
19192;DHT22;9728;48.194;16.346;2023-07-30T02:09:39;30.10;53.90
19192;DHT22;9728;48.194;16.346;2023-07-30T02:14:42;30.00;54.10
19192;DHT22;9728;48.194;16.346;2023-07-30T02:19:45;30.00;54.10
19192;DHT22;9728;48.194;16.346;2023-07-30T02:24:50;30.00;54.10
19192;DHT22;9728;48.194;16.346;2023-07-30T02:29:53;29.90;54.30
19192;DHT22;9728;48.194;16.346;2023-07-30T02:34:57;29.90;54.20
19192;DHT22;9728;48.194;16.346;2023-07-30T02:40:03;29.90;54.20
19192;DHT22;9728;48.194;16.346;2023-07-30T02:45:07;29.90;54.40
19192;DHT22;9728;48.194;16.346;2023-07-30T02:50:10;29.90;54.30
19192;DHT22;9728;48.194;16.346;2023-07-30T02:55:15;29.90;54.30
19192;DHT22;9728;48.194;16.346;2023-07-30T03:00:19;29.90;54.40
19192;DHT22;9728;48.194;16.346;2023-07-30T03:05:23;29.90;54.40
19192;DHT22;9728;48.194;16.346;2023-07-30T03:10:27;29.80;54.30
19192;DHT22;9728;48.194;16.346;2023-07-30T03:15:31;29.80;54.50
19192;DHT22;9728;48.194;16.346;2023-07-30T03:20:34;29.70;54.50
19192;DHT22;9728;48.194;16.346;2023-07-30T03:25:39;29.70;54.60
19192;DHT22;9728;48.194;16.346;2023-07-30T03:30:43;29.60;54.80
19192;DHT22;9728;48.194;16.346;2023-07-30T03:35:46;29.50;54.80
19192;DHT22;9728;48.194;16.346;2023-07-30T03:40:52;29.50;54.90
19192;DHT22;9728;48.194;16.346;2023-07-30T03:45:56;29.40;55.00
19192;DHT22;9728;48.194;16.346;2023-07-30T03:50:59;29.40;55.10
19192;DHT22;9728;48.194;16.346;2023-07-30T03:56:04;29.40;55.10
19192;DHT22;9728;48.194;16.346;2023-07-30T04:01:08;29.40;55.20
19192;DHT22;9728;48.194;16.346;2023-07-30T04:06:11;29.40;55.20
19192;DHT22;9728;48.194;16.346;2023-07-30T04:11:16;29.40;55.20
19192;DHT22;9728;48.194;16.346;2023-07-30T04:16:20;29.40;55.40
19192;DHT22;9728;48.194;16.346;2023-07-30T04:21:23;29.30;55.30
19192;DHT22;9728;48.194;16.346;2023-07-30T04:26:28;29.30;55.40
19192;DHT22;9728;48.194;16.346;2023-07-30T04:31:32;29.40;55.60
19192;DHT22;9728;48.194;16.346;2023-07-30T04:36:36;29.40;55.40
19192;DHT22;9728;48.194;16.346;2023-07-30T04:41:44;29.40;55.50
19192;DHT22;9728;48.194;16.346;2023-07-30T04:46:48;29.40;55.70
19192;DHT22;9728;48.194;16.346;2023-07-30T04:51:52;29.30;55.60
19192;DHT22;9728;48.194;16.346;2023-07-30T04:56:57;29.40;55.70
19192;DHT22;9728;48.194;16.346;2023-07-30T05:02:00;29.40;55.80
19192;DHT22;9728;48.194;16.346;2023-07-30T05:07:05;29.30;55.80
19192;DHT22;9728;48.194;16.346;2023-07-30T05:12:10;29.30;55.80
19192;DHT22;9728;48.194;16.346;2023-07-30T05:17:13;29.40;55.90
19192;DHT22;9728;48.194;16.346;2023-07-30T05:22:17;29.40;55.80
19192;DHT22;9728;48.194;16.346;2023-07-30T05:27:21;29.50;55.90
19192;DHT22;9728;48.194;16.346;2023-07-30T05:32:25;29.50;55.90
19192;DHT22;9728;48.194;16.346;2023-07-30T05:37:29;29.50;55.80
19192;DHT22;9728;48.194;16.346;2023-07-30T05:42:34;29.60;55.90
19192;DHT22;9728;48.194;16.346;2023-07-30T05:47:37;29.60;56.00
19192;DHT22;9728;48.194;16.346;2023-07-30T05:52:41;29.50;56.00
19192;DHT22;9728;48.194;16.346;2023-07-30T05:57:46;29.60;56.10
19192;DHT22;9728;48.194;16.346;2023-07-30T06:02:49;29.50;57.10
19192;DHT22;9728;48.194;16.346;2023-07-30T06:07:53;29.60;56.50
19192;DHT22;9728;48.194;16.346;2023-07-30T06:12:57;29.50;56.60
19192;DHT22;9728;48.194;16.346;2023-07-30T06:18:01;29.60;56.70
19192;DHT22;9728;48.194;16.346;2023-07-30T06:23:05;29.60;56.60
19192;DHT22;9728;48.194;16.346;2023-07-30T06:28:10;29.60;56.50
19192;DHT22;9728;48.194;16.346;2023-07-30T06:33:14;29.60;56.50
19192;DHT22;9728;48.194;16.346;2023-07-30T06:38:17;29.50;56.40
19192;DHT22;9728;48.194;16.346;2023-07-30T06:43:22;29.40;56.60
19192;DHT22;9728;48.194;16.346;2023-07-30T06:48:26;29.40;56.80
19192;DHT22;9728;48.194;16.346;2023-07-30T06:53:29;29.30;56.80
19192;DHT22;9728;48.194;16.346;2023-07-30T06:58:34;29.30;56.80
19192;DHT22;9728;48.194;16.346;2023-07-30T07:03:41;29.30;57.00
19192;DHT22;9728;48.194;16.346;2023-07-30T07:08:45;29.30;56.90
19192;DHT22;9728;48.194;16.346;2023-07-30T07:13:50;29.20;57.10
19192;DHT22;9728;48.194;16.346;2023-07-30T07:18:54;29.10;57.20
19192;DHT22;9728;48.194;16.346;2023-07-30T07:23:57;29.00;57.30
19192;DHT22;9728;48.194;16.346;2023-07-30T07:29:02;28.90;57.60
19192;DHT22;9728;48.194;16.346;2023-07-30T07:34:05;28.80;58.10
19192;DHT22;9728;48.194;16.346;2023-07-30T07:39:08;28.70;58.10
19192;DHT22;9728;48.194;16.346;2023-07-30T07:44:13;28.60;58.30
19192;DHT22;9728;48.194;16.346;2023-07-30T07:49:17;28.60;58.70
19192;DHT22;9728;48.194;16.346;2023-07-30T07:54:20;28.50;58.60
19192;DHT22;9728;48.194;16.346;2023-07-30T07:59:25;28.40;58.80
19192;DHT22;9728;48.194;16.346;2023-07-30T08:04:29;28.40;59.20
19192;DHT22;9728;48.194;16.346;2023-07-30T08:09:33;28.40;59.10
19192;DHT22;9728;48.194;16.346;2023-07-30T08:14:39;28.40;59.20
19192;DHT22;9728;48.194;16.346;2023-07-30T08:19:42;28.40;59.40
19192;DHT22;9728;48.194;16.346;2023-07-30T08:24:46;28.40;59.40
19192;DHT22;9728;48.194;16.346;2023-07-30T08:29:51;28.50;59.60
19192;DHT22;9728;48.194;16.346;2023-07-30T08:34:54;28.50;59.80
19192;DHT22;9728;48.194;16.346;2023-07-30T08:39:58;28.60;59.70
19192;DHT22;9728;48.194;16.346;2023-07-30T08:45:05;28.60;59.80
19192;DHT22;9728;48.194;16.346;2023-07-30T08:50:09;28.70;60.20
19192;DHT22;9728;48.194;16.346;2023-07-30T08:55:13;28.80;59.90
19192;DHT22;9728;48.194;16.346;2023-07-30T09:00:19;28.90;59.90
19192;DHT22;9728;48.194;16.346;2023-07-30T09:05:23;29.00;60.30
19192;DHT22;9728;48.194;16.346;2023-07-30T09:10:27;29.10;60.30
19192;DHT22;9728;48.194;16.346;2023-07-30T09:15:32;29.30;60.30
19192;DHT22;9728;48.194;16.346;2023-07-30T09:20:37;29.50;60.40
19192;DHT22;9728;48.194;16.346;2023-07-30T09:25:41;29.70;59.40
19192;DHT22;9728;48.194;16.346;2023-07-30T09:30:48;29.80;58.90
19192;DHT22;9728;48.194;16.346;2023-07-30T09:35:53;30.00;58.90
19192;DHT22;9728;48.194;16.346;2023-07-30T09:41:00;30.20;58.60
19192;DHT22;9728;48.194;16.346;2023-07-30T09:46:06;30.40;58.40
19192;DHT22;9728;48.194;16.346;2023-07-30T09:51:10;30.60;58.00
19192;DHT22;9728;48.194;16.346;2023-07-30T09:56:14;30.80;57.90
19192;DHT22;9728;48.194;16.346;2023-07-30T10:01:21;30.80;57.70
19192;DHT22;9728;48.194;16.346;2023-07-30T10:06:29;31.00;57.20
19192;DHT22;9728;48.194;16.346;2023-07-30T10:11:35;31.10;56.90
19192;DHT22;9728;48.194;16.346;2023-07-30T10:16:50;31.30;56.70
19192;DHT22;9728;48.194;16.346;2023-07-30T10:21:57;31.30;56.10
19192;DHT22;9728;48.194;16.346;2023-07-30T10:27:05;31.40;56.30
19192;DHT22;9728;48.194;16.346;2023-07-30T10:32:10;31.40;55.80
19192;DHT22;9728;48.194;16.346;2023-07-30T10:37:18;31.50;55.90
19192;DHT22;9728;48.194;16.346;2023-07-30T10:42:22;31.60;55.70
19192;DHT22;9728;48.194;16.346;2023-07-30T10:47:28;31.60;55.90
19192;DHT22;9728;48.194;16.346;2023-07-30T10:52:38;31.70;55.50
19192;DHT22;9728;48.194;16.346;2023-07-30T10:57:42;31.80;55.90
19192;DHT22;9728;48.194;16.346;2023-07-30T11:02:54;31.80;56.60
19192;DHT22;9728;48.194;16.346;2023-07-30T11:07:58;31.80;57.20
19192;DHT22;9728;48.194;16.346;2023-07-30T11:13:01;31.70;56.80
19192;DHT22;9728;48.194;16.346;2023-07-30T11:18:06;31.60;56.90
19192;DHT22;9728;48.194;16.346;2023-07-30T11:23:20;31.50;57.20
19192;DHT22;9728;48.194;16.346;2023-07-30T11:28:30;31.50;58.50
19192;DHT22;9728;48.194;16.346;2023-07-30T11:33:41;31.50;58.70
19192;DHT22;9728;48.194;16.346;2023-07-30T11:38:46;31.60;58.40
19192;DHT22;9728;48.194;16.346;2023-07-30T11:43:50;31.70;58.30
19192;DHT22;9728;48.194;16.346;2023-07-30T11:49:12;31.80;57.90
19192;DHT22;9728;48.194;16.346;2023-07-30T11:54:19;31.90;57.70
19192;DHT22;9728;48.194;16.346;2023-07-30T11:59:23;32.10;57.70
19192;DHT22;9728;48.194;16.346;2023-07-30T12:04:43;32.30;57.70
19192;DHT22;9728;48.194;16.346;2023-07-30T12:09:46;32.60;56.50
19192;DHT22;9728;48.194;16.346;2023-07-30T12:14:54;32.80;56.80
19192;DHT22;9728;48.194;16.346;2023-07-30T12:20:01;33.00;56.60
19192;DHT22;9728;48.194;16.346;2023-07-30T12:25:09;33.20;56.50
19192;DHT22;9728;48.194;16.346;2023-07-30T12:30:12;33.40;56.50
19192;DHT22;9728;48.194;16.346;2023-07-30T12:35:17;33.60;56.40
19192;DHT22;9728;48.194;16.346;2023-07-30T12:40:21;33.90;56.20
19192;DHT22;9728;48.194;16.346;2023-07-30T12:45:24;34.00;55.60
19192;DHT22;9728;48.194;16.346;2023-07-30T12:50:29;34.20;54.90
19192;DHT22;9728;48.194;16.346;2023-07-30T12:55:33;34.10;54.40
19192;DHT22;9728;48.194;16.346;2023-07-30T13:00:37;34.00;54.70
19192;DHT22;9728;48.194;16.346;2023-07-30T13:05:42;33.90;54.00
19192;DHT22;9728;48.194;16.346;2023-07-30T13:10:47;33.90;54.10
19192;DHT22;9728;48.194;16.346;2023-07-30T13:15:52;33.90;54.20
19192;DHT22;9728;48.194;16.346;2023-07-30T13:21:02;34.00;54.00
19192;DHT22;9728;48.194;16.346;2023-07-30T13:26:06;34.10;53.80
19192;DHT22;9728;48.194;16.346;2023-07-30T13:31:11;34.20;53.50
19192;DHT22;9728;48.194;16.346;2023-07-30T13:36:18;34.40;53.30
19192;DHT22;9728;48.194;16.346;2023-07-30T13:41:22;34.50;52.80
19192;DHT22;9728;48.194;16.346;2023-07-30T13:46:25;34.70;52.30
19192;DHT22;9728;48.194;16.346;2023-07-30T13:51:34;34.80;52.20
19192;DHT22;9728;48.194;16.346;2023-07-30T13:56:39;34.80;51.80
19192;DHT22;9728;48.194;16.346;2023-07-30T14:01:43;34.90;51.50
19192;DHT22;9728;48.194;16.346;2023-07-30T14:06:49;35.00;51.30
19192;DHT22;9728;48.194;16.346;2023-07-30T14:11:52;34.90;50.90
19192;DHT22;9728;48.194;16.346;2023-07-30T14:16:57;34.90;50.90
19192;DHT22;9728;48.194;16.346;2023-07-30T14:22:05;34.90;50.70
19192;DHT22;9728;48.194;16.346;2023-07-30T14:27:09;34.80;50.30
19192;DHT22;9728;48.194;16.346;2023-07-30T14:32:12;34.60;50.30
19192;DHT22;9728;48.194;16.346;2023-07-30T14:37:18;34.50;50.30
19192;DHT22;9728;48.194;16.346;2023-07-30T14:42:22;34.40;50.50
19192;DHT22;9728;48.194;16.346;2023-07-30T14:47:26;34.20;50.80
19192;DHT22;9728;48.194;16.346;2023-07-30T14:52:31;34.10;51.10
19192;DHT22;9728;48.194;16.346;2023-07-30T14:57:35;33.90;51.40
19192;DHT22;9728;48.194;16.346;2023-07-30T15:02:39;33.70;51.50
19192;DHT22;9728;48.194;16.346;2023-07-30T15:07:45;33.40;51.80
19192;DHT22;9728;48.194;16.346;2023-07-30T15:12:49;33.10;52.50
19192;DHT22;9728;48.194;16.346;2023-07-30T15:17:53;32.80;52.70
19192;DHT22;9728;48.194;16.346;2023-07-30T15:22:59;32.60;53.00
19192;DHT22;9728;48.194;16.346;2023-07-30T15:28:03;32.40;53.50
19192;DHT22;9728;48.194;16.346;2023-07-30T15:33:09;32.10;53.90
19192;DHT22;9728;48.194;16.346;2023-07-30T15:38:15;31.90;54.10
19192;DHT22;9728;48.194;16.346;2023-07-30T15:43:19;31.80;54.70
19192;DHT22;9728;48.194;16.346;2023-07-30T15:48:22;31.60;54.80
19192;DHT22;9728;48.194;16.346;2023-07-30T15:53:28;31.40;55.00
19192;DHT22;9728;48.194;16.346;2023-07-30T15:58:33;31.30;55.60
19192;DHT22;9728;48.194;16.346;2023-07-30T16:03:38;31.10;55.50
19192;DHT22;9728;48.194;16.346;2023-07-30T16:08:44;30.80;55.60
19192;DHT22;9728;48.194;16.346;2023-07-30T16:13:50;30.70;56.30
19192;DHT22;9728;48.194;16.346;2023-07-30T16:18:55;30.50;56.00
19192;DHT22;9728;48.194;16.346;2023-07-30T16:24:02;30.40;56.60
19192;DHT22;9728;48.194;16.346;2023-07-30T16:29:06;30.20;57.10
19192;DHT22;9728;48.194;16.346;2023-07-30T16:34:11;30.10;57.10
19192;DHT22;9728;48.194;16.346;2023-07-30T16:39:17;30.00;57.40
19192;DHT22;9728;48.194;16.346;2023-07-30T16:44:20;29.90;58.10
19192;DHT22;9728;48.194;16.346;2023-07-30T16:49:26;29.80;58.00
19192;DHT22;9728;48.194;16.346;2023-07-30T16:54:32;29.80;58.20
19192;DHT22;9728;48.194;16.346;2023-07-30T16:59:36;29.70;58.70
19192;DHT22;9728;48.194;16.346;2023-07-30T17:04:40;29.60;58.50
19192;DHT22;9728;48.194;16.346;2023-07-30T17:09:46;29.50;58.60
19192;DHT22;9728;48.194;16.346;2023-07-30T17:14:49;29.50;59.00
19192;DHT22;9728;48.194;16.346;2023-07-30T17:19:54;29.50;59.10
19192;DHT22;9728;48.194;16.346;2023-07-30T17:25:03;29.40;59.00
19192;DHT22;9728;48.194;16.346;2023-07-30T17:30:08;29.40;59.40
19192;DHT22;9728;48.194;16.346;2023-07-30T17:35:13;29.40;59.50
19192;DHT22;9728;48.194;16.346;2023-07-30T17:40:20;29.40;59.50
19192;DHT22;9728;48.194;16.346;2023-07-30T17:45:25;29.30;59.60
19192;DHT22;9728;48.194;16.346;2023-07-30T17:50:31;29.40;59.40
19192;DHT22;9728;48.194;16.346;2023-07-30T17:55:43;29.30;59.40
19192;DHT22;9728;48.194;16.346;2023-07-30T18:00:47;29.30;60.30
19192;DHT22;9728;48.194;16.346;2023-07-30T18:05:53;29.30;59.10
19192;DHT22;9728;48.194;16.346;2023-07-30T18:11:01;29.30;59.00
19192;DHT22;9728;48.194;16.346;2023-07-30T18:16:05;29.20;59.70
19192;DHT22;9728;48.194;16.346;2023-07-30T18:21:10;29.20;58.80
19192;DHT22;9728;48.194;16.346;2023-07-30T18:26:17;29.20;58.50
19192;DHT22;9728;48.194;16.346;2023-07-30T18:31:23;29.20;58.70
19192;DHT22;9728;48.194;16.346;2023-07-30T18:36:32;29.10;58.60
19192;DHT22;9728;48.194;16.346;2023-07-30T18:41:37;29.00;58.60
19192;DHT22;9728;48.194;16.346;2023-07-30T18:46:45;29.00;58.50
19192;DHT22;9728;48.194;16.346;2023-07-30T18:51:49;29.00;58.60
19192;DHT22;9728;48.194;16.346;2023-07-30T18:56:56;29.00;58.60
19192;DHT22;9728;48.194;16.346;2023-07-30T19:02:01;28.90;58.60
19192;DHT22;9728;48.194;16.346;2023-07-30T19:07:06;28.90;58.50
19192;DHT22;9728;48.194;16.346;2023-07-30T19:12:12;28.80;58.60
19192;DHT22;9728;48.194;16.346;2023-07-30T19:17:17;28.80;58.60
19192;DHT22;9728;48.194;16.346;2023-07-30T19:22:24;28.80;58.60
19192;DHT22;9728;48.194;16.346;2023-07-30T19:27:30;28.80;58.70
19192;DHT22;9728;48.194;16.346;2023-07-30T19:32:35;28.80;58.80
19192;DHT22;9728;48.194;16.346;2023-07-30T19:37:40;28.70;58.90
19192;DHT22;9728;48.194;16.346;2023-07-30T19:42:46;28.70;59.00
19192;DHT22;9728;48.194;16.346;2023-07-30T19:47:51;28.60;59.10
19192;DHT22;9728;48.194;16.346;2023-07-30T19:52:57;28.60;59.00
19192;DHT22;9728;48.194;16.346;2023-07-30T19:58:03;28.60;59.10
19192;DHT22;9728;48.194;16.346;2023-07-30T20:03:09;28.60;59.20
19192;DHT22;9728;48.194;16.346;2023-07-30T20:08:13;28.60;59.10
19192;DHT22;9728;48.194;16.346;2023-07-30T20:13:20;28.60;59.10
19192;DHT22;9728;48.194;16.346;2023-07-30T20:18:24;28.60;59.30
19192;DHT22;9728;48.194;16.346;2023-07-30T20:23:29;28.60;59.20
19192;DHT22;9728;48.194;16.346;2023-07-30T20:28:35;28.60;59.20
19192;DHT22;9728;48.194;16.346;2023-07-30T20:33:40;28.60;59.30
19192;DHT22;9728;48.194;16.346;2023-07-30T20:38:44;28.60;59.20
19192;DHT22;9728;48.194;16.346;2023-07-30T20:43:51;28.60;59.20
19192;DHT22;9728;48.194;16.346;2023-07-30T20:48:56;28.50;59.20
19192;DHT22;9728;48.194;16.346;2023-07-30T20:54:01;28.50;59.10
19192;DHT22;9728;48.194;16.346;2023-07-30T20:59:07;28.50;59.10
19192;DHT22;9728;48.194;16.346;2023-07-30T21:04:10;28.50;59.20
19192;DHT22;9728;48.194;16.346;2023-07-30T21:09:13;28.40;59.10
19192;DHT22;9728;48.194;16.346;2023-07-30T21:14:19;28.40;59.20
19192;DHT22;9728;48.194;16.346;2023-07-30T21:19:22;28.40;59.30
19192;DHT22;9728;48.194;16.346;2023-07-30T21:24:27;28.40;59.20
19192;DHT22;9728;48.194;16.346;2023-07-30T21:29:32;28.30;59.10
19192;DHT22;9728;48.194;16.346;2023-07-30T21:34:35;28.30;59.10
19192;DHT22;9728;48.194;16.346;2023-07-30T21:39:39;28.30;59.00
19192;DHT22;9728;48.194;16.346;2023-07-30T21:44:44;28.20;58.90
19192;DHT22;9728;48.194;16.346;2023-07-30T21:49:48;28.10;59.10
19192;DHT22;9728;48.194;16.346;2023-07-30T21:54:51;28.10;59.20
19192;DHT22;9728;48.194;16.346;2023-07-30T21:59:56;28.10;59.30
19192;DHT22;9728;48.194;16.346;2023-07-30T22:05:00;28.00;59.30
19192;DHT22;9728;48.194;16.346;2023-07-30T22:10:05;28.00;59.40
19192;DHT22;9728;48.194;16.346;2023-07-30T22:15:12;27.90;59.50
19192;DHT22;9728;48.194;16.346;2023-07-30T22:20:16;27.80;59.60
19192;DHT22;9728;48.194;16.346;2023-07-30T22:25:19;27.80;59.60
19192;DHT22;9728;48.194;16.346;2023-07-30T22:30:24;27.80;59.60
19192;DHT22;9728;48.194;16.346;2023-07-30T22:35:28;27.80;59.60
19192;DHT22;9728;48.194;16.346;2023-07-30T22:40:32;27.80;59.40
19192;DHT22;9728;48.194;16.346;2023-07-30T22:45:37;27.90;59.40
19192;DHT22;9728;48.194;16.346;2023-07-30T22:50:40;27.90;59.40
19192;DHT22;9728;48.194;16.346;2023-07-30T22:55:46;27.80;59.30
19192;DHT22;9728;48.194;16.346;2023-07-30T23:00:51;27.80;59.40
19192;DHT22;9728;48.194;16.346;2023-07-30T23:05:55;27.80;59.30
19192;DHT22;9728;48.194;16.346;2023-07-30T23:10:59;27.80;59.20
19192;DHT22;9728;48.194;16.346;2023-07-30T23:16:04;27.80;59.10
19192;DHT22;9728;48.194;16.346;2023-07-30T23:21:08;27.80;59.10
19192;DHT22;9728;48.194;16.346;2023-07-30T23:26:11;27.80;59.00
19192;DHT22;9728;48.194;16.346;2023-07-30T23:31:16;27.80;58.80
19192;DHT22;9728;48.194;16.346;2023-07-30T23:36:19;27.80;58.70
19192;DHT22;9728;48.194;16.346;2023-07-30T23:41:23;27.80;58.60
19192;DHT22;9728;48.194;16.346;2023-07-30T23:46:28;27.80;58.30
19192;DHT22;9728;48.194;16.346;2023-07-30T23:51:31;27.70;58.30
19192;DHT22;9728;48.194;16.346;2023-07-30T23:56:35;27.70;58.30
